Alma, IL (62807)

12:20 PM CST del 06 Febbraio 2016 (GMT -0600)
Alma Park | | Change Station
CLOSE
Current Station
Stazione meteo personale
Location: Alma, IL
Altitudine: 640 ft
Stazioni meteo nelle vicinanze

Alt. 640 ft 38.72 °N, 88.91 °W | Updated 12 minutes ago

Sereno
Sereno
49.1 °F
Sembra 49 °F
N
2.2
Vento Variabile Vento da SO

Oggi
Massima -- | Minima -- °F
--% Possibilità di precip.
Ieri
Massima -- | Minima -- °F
Precip. -- in
Pressione 30.30 in
Visibilità 10.0 miglia
Nuvole Sereno
Raffreddamento del vento 49 °F
Punto di rugiada 31 °F
Umidità 49%
Piovosità 0.00 in
Spessore del manto nevoso Non disponibile.
6:57 AM 5:22 PM
Luna calante, 4% visible
METAR KSLO 061815Z AUTO 23005KT 10SM CLR 10/M02 A3030 RMK AO2 T00961024
Pressione 30.30 in
Visibilità 10.0 miglia
Nuvole Sereno
Raffreddamento del vento 49 °F
Punto di rugiada 31 °F
Umidità 49%
Piovosità 0.00 in
Spessore del manto nevoso Non disponibile.
6:57 AM 5:22 PM
Luna calante, 4% visible
METAR KSLO 061815Z AUTO 23005KT 10SM CLR 10/M02 A3030 RMK AO2 T00961024

10-Day Weather Forecast

Almanac

Astronomia

Feb. 06, 2016 Alba Tramonto
Ora attuale
Crepuscolo civile
Crepuscolo nautico
Crepuscolo astronomico
Luna
Estensione della luce visibile
Lunghezza del giorno
Tomorrow will be .
, % of the Moon is Illuminated

Gli estremi di oggi

State Highs State Lows

Community

WunderPhotos

Upload Photos

1,891,030 foto caricate!

WunderBlog® & News

Nearby

Qualità dell'aria

  Qualità dell'aria Indice AQ Inquinante
Not available.

Profondità neve

Stazione Profondità Altitudine

Attività sismica

Città  Distanza Mag. Data & Ora
Minimo Magnitudo Mostrato è 2.5.

Temperature delle acque costiere

Località Temperatura

Stations

Stazioni meteo nelle vicinanze

Ubicazione della stazione Temp. Raffreddamento del vento Punto di rugiada Umidità Vento Precip. Alt. Aggiornato Tipo
                   

Watches & Warnings

There are currently no watches in effect.